Time;durP1;ratioP1;P1;durP2;ratioP2;P2;SDS_P1;SDS_P2;PMS_P1;PMS_P2;Temp;Humidity;BMP_temperature;BMP_pressure;BME280_temperature;BME280_humidity;BME280_pressure;Samples;Min_cycle;Max_cycle;Signal;HPM_P1;HPM_P2
2023/09/24 00:00:13;;;;;;;5.53;1.42;;;;;;;12.55;65.46;100242.84;5082706;28;20076;-56
2023/09/24 00:02:40;;;;;;;3.13;1.67;;;;;;;12.56;65.45;100237.66;5083304;28;20048;-51
2023/09/24 00:05:08;;;;;;;2.47;1.20;;;;;;;12.58;66.57;100245.44;5082482;28;20682;-50
2023/09/24 00:07:35;;;;;;;7.00;1.40;;;;;;;12.57;66.66;100241.97;5075438;28;20048;-49
2023/09/24 00:10:03;;;;;;;4.00;1.25;;;;;;;12.64;66.43;100247.13;5079347;28;20045;-50
2023/09/24 00:12:31;;;;;;;5.78;1.23;;;;;;;12.67;66.38;100247.09;5074773;28;20398;-51
2023/09/24 00:14:58;;;;;;;4.05;0.80;;;;;;;12.64;66.29;100241.94;5075460;28;20052;-51
2023/09/24 00:17:25;;;;;;;2.47;1.02;;;;;;;12.64;65.54;100247.13;5075633;28;20048;-54
2023/09/24 00:19:53;;;;;;;2.33;1.15;;;;;;;12.67;66.24;100247.09;5082915;28;20048;-48
2023/09/24 00:22:19;;;;;;;3.63;0.82;;;;;;;12.66;66.24;100245.41;5081866;28;20559;-49
2023/09/24 00:24:46;;;;;;;2.63;1.25;;;;;;;12.67;65.80;100234.13;5063978;28;20477;-50
2023/09/24 00:27:14;;;;;;;6.32;1.45;;;;;;;12.65;65.88;100238.44;5080018;28;20044;-52
2023/09/24 00:29:41;;;;;;;4.40;1.90;;;;;;;12.67;66.46;100247.09;5078949;28;20048;-49
2023/09/24 00:32:08;;;;;;;2.75;0.98;;;;;;;12.68;66.60;100243.63;5081915;28;20581;-48
2023/09/24 00:34:36;;;;;;;2.38;1.13;;;;;;;12.66;66.81;100256.63;5076551;28;20117;-51
2023/09/24 00:37:02;;;;;;;4.88;1.20;;;;;;;12.71;67.04;100269.59;5067488;28;20051;-49
2023/09/24 00:39:30;;;;;;;10.63;1.45;;;;;;;12.75;66.54;100262.63;5068568;28;20044;-47
2023/09/24 00:41:57;;;;;;;6.70;1.83;;;;;;;12.75;66.97;100260.91;5067366;28;20052;-49
2023/09/24 00:44:24;;;;;;;6.70;1.38;;;;;;;12.75;67.22;100254.81;5067485;28;20053;-50
2023/09/24 00:46:51;;;;;;;6.13;1.17;;;;;;;12.81;66.95;100260.84;5067689;28;20052;-47
2023/09/24 00:49:18;;;;;;;5.70;1.67;;;;;;;12.85;65.89;100261.69;5067478;28;20056;-51
2023/09/24 00:51:45;;;;;;;3.88;0.93;;;;;;;12.82;66.33;100246.09;5067758;28;20052;-49
2023/09/24 00:54:13;;;;;;;3.92;1.25;;;;;;;12.84;65.80;100245.22;5068853;28;20557;-49
2023/09/24 00:56:40;;;;;;;2.97;1.52;;;;;;;12.87;66.46;100238.28;5068740;28;20094;-49
2023/09/24 00:59:08;;;;;;;4.95;0.95;;;;;;;12.82;66.76;100231.38;5065060;28;20091;-48
2023/09/24 01:01:35;;;;;;;4.45;1.15;;;;;;;12.88;67.30;100235.66;5060546;28;20051;-51
2023/09/24 01:04:09;;;;;;;6.40;1.48;;;;;;;12.90;67.32;100233.06;5064211;28;20137;-46
2023/09/24 01:06:36;;;;;;;6.72;1.92;;;;;;;12.90;67.02;100227.84;5062548;28;20056;-47
2023/09/24 01:09:06;;;;;;;2.80;1.23;;;;;;;12.94;67.48;100224.34;5061295;28;20056;-49
2023/09/24 01:11:33;;;;;;;3.20;1.55;;;;;;;12.95;66.80;100226.06;5066033;28;20063;-54
2023/09/24 01:14:00;;;;;;;5.38;1.77;;;;;;;13.02;66.98;100225.13;5062102;28;20057;-47
2023/09/24 01:16:26;;;;;;;5.22;2.00;;;;;;;13.05;67.07;100232.91;5062551;28;20052;-53
2023/09/24 01:18:53;;;;;;;5.40;1.58;;;;;;;13.04;68.26;100220.75;5066182;28;20048;-50
2023/09/24 01:21:22;;;;;;;4.55;1.73;;;;;;;13.09;67.30;100224.19;5067614;28;20055;-50
2023/09/24 01:23:49;;;;;;;5.65;1.70;;;;;;;13.15;67.32;100219.78;5064368;28;20063;-53
2023/09/24 01:26:18;;;;;;;6.75;1.40;;;;;;;13.11;67.88;100212.03;5059302;28;20515;-48
2023/09/24 01:28:47;;;;;;;3.47;1.35;;;;;;;13.18;67.47;100211.97;5062992;28;20109;-46
2023/09/24 01:31:15;;;;;;;4.72;1.50;;;;;;;13.24;67.52;100211.88;5064318;28;20052;-51
2023/09/24 01:33:43;;;;;;;8.90;1.20;;;;;;;13.26;68.33;100210.13;5060675;28;20507;-54
2023/09/24 01:36:10;;;;;;;8.32;1.63;;;;;;;13.28;67.53;100213.59;5059135;28;20155;-51
2023/09/24 01:38:41;;;;;;;6.60;1.77;;;;;;;13.24;69.07;100211.88;5061506;28;20052;-50
2023/09/24 01:41:10;;;;;;;4.90;1.45;;;;;;;13.26;68.32;100212.72;5058514;28;20127;-50
2023/09/24 01:43:42;;;;;;;5.13;1.75;;;;;;;13.29;68.35;100220.50;5056880;28;20052;-47
2023/09/24 01:46:10;;;;;;;4.75;1.52;;;;;;;13.23;69.51;100216.25;5044759;28;20056;-49
2023/09/24 01:48:41;;;;;;;3.05;1.63;;;;;;;13.15;69.41;100212.88;5061726;28;20044;-49
2023/09/24 01:51:10;;;;;;;6.03;1.98;;;;;;;13.17;70.43;100199.84;5065065;28;20044;-49
2023/09/24 01:53:38;;;;;;;4.55;1.50;;;;;;;13.16;69.48;100198.09;5048669;28;20451;-52
2023/09/24 01:56:07;;;;;;;4.93;1.13;;;;;;;13.17;69.30;100184.25;5062691;28;20681;-49
2023/09/24 01:58:37;;;;;;;4.32;1.67;;;;;;;13.14;69.59;100192.06;5042506;28;20052;-50
2023/09/24 02:01:06;;;;;;;2.97;0.90;;;;;;;13.09;69.76;100193.00;5062895;28;20064;-47
2023/09/24 02:03:34;;;;;;;3.65;2.17;;;;;;;13.11;69.62;100187.78;5033415;28;20052;-52
2023/09/24 02:06:03;;;;;;;5.05;1.42;;;;;;;13.15;69.30;100201.59;5060340;28;20102;-51
2023/09/24 02:08:30;;;;;;;6.30;2.20;;;;;;;13.16;69.90;100203.31;5061625;28;20072;-51
2023/09/24 02:10:58;;;;;;;4.28;2.47;;;;;;;13.19;70.83;100198.06;5059695;28;20044;-53
2023/09/24 02:13:26;;;;;;;3.97;1.83;;;;;;;13.17;70.79;100194.66;5061142;28;20044;-49
2023/09/24 02:15:53;;;;;;;6.95;1.90;;;;;;;13.20;71.29;100191.97;5040538;28;20040;-53
2023/09/24 02:18:21;;;;;;;6.68;1.75;;;;;;;13.25;71.21;100172.00;5065484;28;20072;-49
2023/09/24 02:20:51;;;;;;;4.35;1.67;;;;;;;13.30;70.94;100170.19;5065724;28;20056;-51
2023/09/24 02:23:19;;;;;;;2.30;0.80;;;;;;;13.31;71.54;100169.31;5065984;28;20056;-52
2023/09/24 02:25:46;;;;;;;6.57;1.88;;;;;;;13.36;71.24;100169.28;5058050;28;20052;-48
2023/09/24 02:28:17;;;;;;;3.22;1.85;;;;;;;13.43;70.51;100170.03;5061315;28;20144;-52
2023/09/24 02:30:44;;;;;;;9.55;1.88;;;;;;;13.45;71.20;100161.34;5058962;28;20049;-51
2023/09/24 02:33:11;;;;;;;6.45;2.53;;;;;;;13.49;70.58;100170.00;5065399;28;20075;-52
2023/09/24 02:35:39;;;;;;;6.68;1.75;;;;;;;13.54;71.10;100165.59;5065482;28;20127;-53
2023/09/24 02:38:08;;;;;;;6.25;1.80;;;;;;;13.54;70.66;100157.78;5062405;28;20109;-50
2023/09/24 02:40:35;;;;;;;5.45;1.45;;;;;;;13.62;70.14;100161.16;5064886;28;20052;-48
2023/09/24 02:43:04;;;;;;;7.40;2.08;;;;;;;13.64;70.51;100158.53;5046254;28;20072;-48
2023/09/24 02:45:31;;;;;;;3.33;1.40;;;;;;;13.65;70.72;100146.38;5064704;28;20497;-48
2023/09/24 02:47:58;;;;;;;3.58;1.30;;;;;;;13.74;70.36;100148.84;5065755;28;20094;-50
2023/09/24 02:50:28;;;;;;;4.63;2.20;;;;;;;13.80;70.25;100148.78;5064879;28;20052;-49
2023/09/24 02:52:58;;;;;;;4.28;0.93;;;;;;;13.76;70.80;100144.50;5062405;28;20052;-53
2023/09/24 02:55:27;;;;;;;6.70;1.65;;;;;;;13.80;70.72;100143.56;5041946;28;20073;-45
2023/09/24 02:57:54;;;;;;;5.05;1.55;;;;;;;13.85;70.74;100141.75;5063077;28;20070;-54
2023/09/24 03:00:26;;;;;;;6.03;1.35;;;;;;;13.86;71.67;100140.00;5065236;28;20060;-52
2023/09/24 03:02:58;;;;;;;5.63;1.63;;;;;;;13.91;71.05;100146.00;5045472;28;20055;-51
2023/09/24 03:05:28;;;;;;;5.38;1.52;;;;;;;13.95;71.21;100142.47;5047290;28;20127;-55
2023/09/24 03:07:59;;;;;;;4.72;1.63;;;;;;;13.99;70.61;100148.50;5066046;28;20048;-50
2023/09/24 03:10:26;;;;;;;5.72;1.50;;;;;;;13.99;70.69;100148.50;5048222;28;20063;-46
2023/09/24 03:12:54;;;;;;;6.65;1.42;;;;;;;14.00;70.56;100134.59;5065978;28;20044;-49
2023/09/24 03:15:21;;;;;;;3.67;1.70;;;;;;;13.98;70.84;100141.53;5053479;28;20044;-50
2023/09/24 03:17:47;;;;;;;9.20;1.98;;;;;;;14.04;71.74;100141.47;5061457;28;20063;-48
2023/09/24 03:20:15;;;;;;;4.70;2.72;;;;;;;14.06;71.31;100147.53;5060277;28;20044;-47
2023/09/24 03:22:43;;;;;;;4.55;1.35;;;;;;;14.07;71.12;100151.84;5048318;28;20063;-48
2023/09/24 03:25:11;;;;;;;8.40;1.45;;;;;;;14.09;71.10;100150.06;5044658;28;20715;-50
2023/09/24 03:27:39;;;;;;;4.53;1.45;;;;;;;14.10;71.10;100146.59;5059551;28;20055;-55
2023/09/24 03:30:09;;;;;;;6.47;1.23;;;;;;;14.13;71.68;100151.75;5063228;28;20053;-52
2023/09/24 03:32:37;;;;;;;5.03;1.42;;;;;;;14.12;71.43;100138.75;5064889;28;20478;-53
2023/09/24 03:35:06;;;;;;;4.97;1.08;;;;;;;14.14;71.92;100137.84;5025916;28;20048;-48
2023/09/24 03:37:32;;;;;;;5.05;2.13;;;;;;;14.15;71.75;100128.25;5044517;28;20045;-47
2023/09/24 03:39:59;;;;;;;7.63;2.15;;;;;;;14.17;71.68;100141.25;5061685;28;20049;-50
2023/09/24 03:42:26;;;;;;;4.40;1.45;;;;;;;14.19;71.83;100121.28;5060604;28;20056;-49
2023/09/24 03:51:36;;;;;;;9.10;3.13;;;;;;;14.25;71.81;100127.22;5149918;27;20509;-51
2023/09/24 03:54:03;;;;;;;4.13;2.85;;;;;;;14.16;72.47;100121.31;5156160;27;20055;-50
2023/09/24 03:56:29;;;;;;;8.07;3.05;;;;;;;14.19;72.30;100126.47;5154306;27;20078;-53
2023/09/24 03:58:56;;;;;;;7.50;3.55;;;;;;;14.22;72.30;100131.66;5150650;27;20046;-48
2023/09/24 04:01:23;;;;;;;3.05;1.38;;;;;;;14.21;72.57;100129.91;5155783;27;20446;-51
2023/09/24 04:03:50;;;;;;;7.63;2.90;;;;;;;14.21;72.47;100117.75;5148981;27;20121;-48
2023/09/24 04:06:17;;;;;;;3.33;3.03;;;;;;;14.25;71.90;100123.75;5155137;27;20048;-49
2023/09/24 04:08:45;;;;;;;6.78;3.30;;;;;;;14.26;71.78;100109.88;5159097;27;20046;-52
2023/09/24 04:11:15;;;;;;;5.10;2.78;;;;;;;14.26;73.02;100115.91;5154313;27;20038;-49
2023/09/24 04:13:42;;;;;;;6.72;3.65;;;;;;;14.29;72.39;100117.63;5159302;27;20043;-52
2023/09/24 04:16:10;;;;;;;8.73;3.88;;;;;;;14.30;72.32;100111.53;5154424;27;20066;-51
2023/09/24 04:18:37;;;;;;;8.00;1.75;;;;;;;14.31;73.06;100113.25;5128098;27;20453;-52
2023/09/24 04:21:12;;;;;;;4.40;2.95;;;;;;;14.31;72.90;100112.38;5155536;27;20066;-55
2023/09/24 04:23:39;;;;;;;10.13;3.03;;;;;;;14.36;72.96;100128.81;5156406;27;20137;-48
2023/09/24 04:26:06;;;;;;;7.28;1.63;;;;;;;14.38;72.54;100124.41;5148546;27;20586;-52
2023/09/24 04:28:33;;;;;;;13.45;3.00;;;;;;;14.38;72.78;100129.63;5150555;27;20077;-48
2023/09/24 04:30:59;;;;;;;6.80;3.47;;;;;;;14.30;74.66;100121.97;5151507;27;20084;-49
2023/09/24 04:33:26;;;;;;;6.88;3.20;;;;;;;14.32;74.70;100127.13;5151638;27;20077;-54
2023/09/24 04:35:53;;;;;;;3.47;2.83;;;;;;;14.27;74.61;100127.22;5149328;27;20181;-48
2023/09/24 04:38:21;;;;;;;4.68;3.42;;;;;;;14.27;75.22;100114.19;5150493;27;20147;-47
2023/09/24 04:40:48;;;;;;;5.43;3.42;;;;;;;14.23;76.10;100113.41;5153869;27;20490;-48
2023/09/24 04:43:16;;;;;;;5.55;2.80;;;;;;;14.24;75.91;100104.69;5145186;27;20050;-47
2023/09/24 04:45:43;;;;;;;10.07;3.65;;;;;;;14.21;76.47;100101.25;5143263;27;20035;-47
2023/09/24 04:48:10;;;;;;;6.07;2.55;;;;;;;14.18;76.70;100102.16;5143150;27;20049;-50
2023/09/24 04:50:36;;;;;;;4.13;2.55;;;;;;;14.20;77.13;100094.34;5141371;27;20043;-51
2023/09/24 04:53:05;;;;;;;6.30;3.47;;;;;;;14.18;77.33;100093.50;5144753;27;20096;-44
2023/09/24 04:55:33;;;;;;;6.47;3.35;;;;;;;14.17;76.80;100104.78;5143245;27;20051;-51
2023/09/24 04:58:00;;;;;;;7.13;2.95;;;;;;;14.20;77.58;100104.75;5144478;27;20050;-47
2023/09/24 05:00:27;;;;;;;4.85;3.10;;;;;;;14.19;77.42;100108.25;5141370;27;20096;-47
2023/09/24 05:02:53;;;;;;;2.15;1.92;;;;;;;14.17;78.20;100102.19;5128963;27;20039;-51
2023/09/24 05:05:20;;;;;;;6.65;2.85;;;;;;;14.19;78.79;100103.03;5129236;27;20039;-51
2023/09/24 05:07:47;;;;;;;4.38;3.72;;;;;;;14.20;78.01;100105.63;5130441;27;20058;-45
2023/09/24 05:10:14;;;;;;;6.82;3.42;;;;;;;14.23;78.39;100112.53;5129878;27;20120;-50
2023/09/24 05:12:41;;;;;;;9.02;3.42;;;;;;;14.24;78.32;100109.91;5129732;27;20050;-51
2023/09/24 05:15:08;;;;;;;7.00;2.90;;;;;;;14.23;78.83;100107.31;5129695;27;20726;-50
2023/09/24 05:17:35;;;;;;;8.13;3.33;;;;;;;14.29;78.65;100115.03;5125873;27;20436;-49
2023/09/24 05:20:03;;;;;;;5.85;2.97;;;;;;;14.31;78.03;100108.03;5123277;27;20054;-49
2023/09/24 05:22:30;;;;;;;8.80;3.35;;;;;;;14.33;78.31;100111.50;5110336;27;20054;-47
2023/09/24 05:24:56;;;;;;;4.80;3.03;;;;;;;14.36;78.03;100121.00;5126515;27;20506;-51
2023/09/24 05:27:24;;;;;;;5.68;3.50;;;;;;;14.32;78.77;100112.34;5127531;27;20043;-50
2023/09/24 05:29:51;;;;;;;8.73;3.05;;;;;;;14.38;78.44;100114.88;5129586;27;20134;-46
2023/09/24 05:32:18;;;;;;;6.07;2.80;;;;;;;14.37;78.61;100118.38;5120577;27;20062;-50
2023/09/24 05:34:44;;;;;;;8.40;3.28;;;;;;;14.43;78.70;100121.72;5123537;27;20044;-45
2023/09/24 05:37:11;;;;;;;5.93;2.85;;;;;;;14.43;78.91;100108.72;5125266;27;20046;-46
2023/09/24 05:39:38;;;;;;;4.63;3.28;;;;;;;14.40;78.80;100107.84;5127641;27;20040;-46
2023/09/24 05:42:05;;;;;;;8.90;3.67;;;;;;;14.45;79.11;100114.75;5119318;27;20050;-46
2023/09/24 05:44:32;;;;;;;5.45;3.35;;;;;;;14.47;79.25;100123.41;5120029;27;20051;-50
2023/09/24 05:47:00;;;;;;;11.55;3.30;;;;;;;14.52;79.22;100116.34;5120170;27;20054;-46
2023/09/24 05:49:26;;;;;;;14.07;3.67;;;;;;;14.49;80.16;100116.44;5118393;27;20056;-51
2023/09/24 05:51:54;;;;;;;17.33;3.05;;;;;;;14.56;79.44;100122.38;5120074;27;20059;-50
2023/09/24 05:54:21;;;;;;;6.15;3.00;;;;;;;14.57;79.40;100109.31;5120266;27;20047;-50
2023/09/24 05:56:47;;;;;;;3.17;2.78;;;;;;;14.56;79.99;100123.22;5120033;27;20388;-45
2023/09/24 05:59:14;;;;;;;3.35;3.15;;;;;;;14.59;80.26;100125.78;5121417;27;20047;-49
2023/09/24 06:01:42;;;;;;;12.10;1.80;;;;;;;14.65;79.35;100120.47;5119934;27;20567;-51
2023/09/24 06:04:09;;;;;;;4.38;2.72;;;;;;;14.68;79.68;100127.38;5119661;27;22182;-46
2023/09/24 06:06:37;;;;;;;5.55;1.55;;;;;;;14.71;79.93;100132.53;5119104;27;20551;-48
2023/09/24 06:09:08;;;;;;;6.95;3.20;;;;;;;14.75;79.66;100139.41;5120001;27;20047;-49
2023/09/24 06:11:37;;;;;;;13.35;3.95;;;;;;;14.76;80.03;100140.28;5119322;27;20107;-49
2023/09/24 06:14:08;;;;;;;6.85;3.03;;;;;;;14.81;79.90;100142.81;5118075;27;20051;-49
2023/09/24 06:16:36;;;;;;;4.47;3.40;;;;;;;14.83;80.38;100141.03;5119238;27;20047;-50
2023/09/24 06:19:06;;;;;;;5.68;3.30;;;;;;;14.88;80.08;100149.63;5118144;27;20051;-47
2023/09/24 06:21:32;;;;;;;8.80;3.15;;;;;;;14.92;79.88;100153.06;5097571;27;20055;-51
2023/09/24 06:23:59;;;;;;;7.78;1.42;;;;;;;14.99;79.49;100144.19;5119565;27;20419;-49
2023/09/24 06:26:27;;;;;;;7.60;3.03;;;;;;;15.02;79.90;100144.13;5118441;27;20051;-45
2023/09/24 06:28:54;;;;;;;11.88;3.80;;;;;;;15.08;79.40;100141.41;5119504;27;20408;-50
2023/09/24 06:31:36;;;;;;;7.50;2.45;;;;;;;15.10;79.55;100144.00;5124940;27;20434;-48
2023/09/24 06:34:03;;;;;;;10.63;3.38;;;;;;;15.18;79.17;100146.44;5128879;27;20073;-48
2023/09/24 06:36:31;;;;;;;9.57;3.33;;;;;;;15.23;79.16;100149.84;5124968;27;20081;-46
2023/09/24 06:38:59;;;;;;;12.13;3.38;;;;;;;15.25;79.49;100158.47;5110706;27;20040;-50
2023/09/24 06:41:26;;;;;;;8.40;2.97;;;;;;;15.28;79.01;100147.97;5129935;27;20613;-49
2023/09/24 06:43:53;;;;;;;8.02;3.03;;;;;;;15.30;79.20;100159.22;5127349;27;20047;-48
2023/09/24 06:46:20;;;;;;;5.70;3.75;;;;;;;15.33;79.02;100151.34;5126682;27;20054;-49
2023/09/24 06:48:46;;;;;;;6.70;2.92;;;;;;;15.34;79.01;100155.69;5107569;27;20087;-53
2023/09/24 06:51:13;;;;;;;3.83;2.70;;;;;;;15.40;78.97;100158.16;5125937;27;20077;-50
2023/09/24 06:53:40;;;;;;;13.52;3.60;;;;;;;15.42;79.29;100161.59;5121913;27;20051;-46
2023/09/24 06:56:07;;;;;;;7.53;3.72;;;;;;;15.45;79.24;100154.59;5125206;27;20499;-51
2023/09/24 06:58:35;;;;;;;7.63;3.75;;;;;;;15.50;78.85;100157.97;5125561;27;20122;-52
2023/09/24 07:01:06;;;;;;;7.95;3.25;;;;;;;15.55;78.77;100157.00;5123157;27;20411;-52
2023/09/24 07:03:33;;;;;;;4.20;2.97;;;;;;;15.60;78.58;100150.81;5108493;27;20101;-49
2023/09/24 07:06:03;;;;;;;8.27;2.95;;;;;;;15.64;79.33;100150.69;5124031;27;20503;-48
2023/09/24 07:08:33;;;;;;;9.48;3.42;;;;;;;15.67;79.06;100158.44;5105450;27;20047;-47
2023/09/24 07:13:56;;;;;;;9.57;2.38;;;;;;;15.74;79.00;100153.09;5055264;28;20751;-53
2023/09/24 07:16:24;;;;;;;7.28;1.92;;;;;;;15.77;78.64;100160.88;5022469;28;20049;-53
2023/09/24 07:18:53;;;;;;;7.03;0.82;;;;;;;15.77;78.96;100160.88;5022940;28;20145;-48
2023/09/24 07:21:22;;;;;;;3.35;1.70;;;;;;;15.83;78.52;100160.72;5022938;28;20068;-50
2023/09/24 07:24:01;;;;;;;5.75;1.70;;;;;;;15.88;78.65;100161.47;5018719;28;20042;-50
2023/09/24 07:26:28;;;;;;;5.28;0.80;;;;;;;15.90;78.68;100164.91;5013882;28;20248;-46
2023/09/24 07:28:55;;;;;;;8.43;1.55;;;;;;;15.92;78.77;100165.75;5021780;28;20053;-49
2023/09/24 07:31:23;;;;;;;4.85;1.50;;;;;;;15.94;78.71;100161.31;5023550;28;20128;-54
2023/09/24 07:33:57;;;;;;;4.22;0.95;;;;;;;15.98;78.46;100163.91;5017689;28;20048;-50
2023/09/24 07:36:24;;;;;;;;;;;;;;;15.89;79.17;100170.16;5018123;28;20054;-47
2023/09/24 07:38:54;;;;;;;;;;;;;;;15.87;79.87;100159.75;5020614;28;19929;-51
2023/09/24 07:41:21;;;;;;;7.07;1.85;;;;;;;15.99;79.20;100157.78;5019004;28;19921;-49
2023/09/24 07:43:48;;;;;;;7.13;1.70;;;;;;;16.03;79.26;100160.28;5022636;28;20056;-54
2023/09/24 07:46:15;;;;;;;2.50;1.08;;;;;;;16.11;79.13;100164.47;5042363;28;20103;-53
2023/09/24 07:48:44;;;;;;;6.68;1.58;;;;;;;16.15;79.03;100166.97;5042165;28;20482;-46
2023/09/24 07:51:11;;;;;;;5.97;1.50;;;;;;;16.19;78.93;100168.59;5036581;28;21220;-51
2023/09/24 07:53:38;;;;;;;3.05;1.27;;;;;;;16.24;78.98;100160.66;5038717;28;20457;-49
2023/09/24 07:56:10;;;;;;;6.57;1.75;;;;;;;16.27;79.44;100170.16;5029212;28;20053;-52
2023/09/24 07:58:39;;;;;;;4.32;1.50;;;;;;;16.27;78.89;100164.94;5041191;28;20406;-53
2023/09/24 08:01:08;;;;;;;4.30;1.27;;;;;;;16.31;79.11;100167.47;5041619;28;20414;-53
2023/09/24 08:03:36;;;;;;;2.92;1.35;;;;;;;16.33;78.40;100170.03;5038001;28;20053;-46
2023/09/24 08:06:04;;;;;;;2.35;1.02;;;;;;;16.36;78.76;100163.88;5038536;28;20053;-55
2023/09/24 08:08:34;;;;;;;9.75;1.85;;;;;;;16.35;78.71;100167.38;5039447;28;20132;-51
2023/09/24 08:11:17;;;;;;;4.20;0.98;;;;;;;16.37;78.70;100166.44;5041221;28;20049;-52
2023/09/24 08:13:44;;;;;;;4.93;1.02;;;;;;;16.40;78.63;100176.84;5033502;28;20053;-51
2023/09/24 08:16:11;;;;;;;5.38;1.48;;;;;;;16.41;78.91;100173.31;5033474;28;20050;-46
2023/09/24 08:18:37;;;;;;;2.58;0.95;;;;;;;16.45;78.86;100169.72;5039376;28;20140;-51
2023/09/24 08:21:04;;;;;;;3.53;1.30;;;;;;;16.53;78.93;100171.28;5041448;28;20132;-51
2023/09/24 08:23:31;;;;;;;4.82;1.65;;;;;;;16.55;79.07;100174.72;5038652;28;20037;-51
2023/09/24 08:26:00;;;;;;;4.72;1.67;;;;;;;16.57;78.81;100176.41;5020317;28;20053;-46
2023/09/24 08:28:26;;;;;;;2.63;0.98;;;;;;;16.58;79.35;100165.03;5022319;28;20069;-50
2023/09/24 08:30:53;;;;;;;3.97;1.58;;;;;;;16.60;79.26;100177.22;5025032;28;20111;-52
2023/09/24 08:33:20;;;;;;;6.32;1.40;;;;;;;16.64;78.54;100176.22;5015743;28;20108;-53
2023/09/24 08:35:47;;;;;;;8.82;1.67;;;;;;;16.63;79.44;100183.22;5024121;28;20054;-55
2023/09/24 08:38:14;;;;;;;1.77;0.88;;;;;;;16.63;79.12;100171.91;5020686;28;20069;-53
2023/09/24 08:40:41;;;;;;;8.02;1.73;;;;;;;16.65;78.62;100170.97;5024123;28;20056;-58
2023/09/24 08:43:14;;;;;;;4.30;1.02;;;;;;;16.64;79.43;100174.47;5019452;28;20052;-52
2023/09/24 08:45:42;;;;;;;5.78;1.42;;;;;;;16.66;79.70;100180.53;5020130;28;20045;-52
2023/09/24 08:48:09;;;;;;;4.38;1.33;;;;;;;16.68;79.06;100176.13;5021978;28;20057;-54
2023/09/24 08:50:38;;;;;;;5.05;1.33;;;;;;;16.66;79.87;100177.94;5020134;28;20057;-48
2023/09/24 08:53:12;;;;;;;2.10;1.67;;;;;;;16.70;79.62;100173.47;5021707;28;20045;-50
2023/09/24 08:55:45;;;;;;;6.13;1.42;;;;;;;16.73;79.54;100172.53;5023765;28;20532;-53
2023/09/24 08:58:12;;;;;;;5.90;1.27;;;;;;;16.73;79.81;100172.53;5019186;28;20045;-48
2023/09/24 09:00:39;;;;;;;2.95;0.95;;;;;;;16.79;79.65;100174.97;5020071;28;20526;-46
2023/09/24 09:03:06;;;;;;;3.72;1.25;;;;;;;16.82;79.80;100170.53;5018085;28;20494;-44
2023/09/24 09:05:36;;;;;;;4.10;1.65;;;;;;;16.87;79.24;100169.53;5021548;28;20089;-56
2023/09/24 09:08:04;;;;;;;;;;;;;;;16.79;80.18;100167.13;5018573;28;20846;-52
2023/09/24 09:10:33;;;;;;;6.60;1.42;;;;;;;16.96;79.00;100178.00;5020602;28;19975;-52
2023/09/24 09:13:04;;;;;;;;;;;;;;;16.90;80.28;100179.91;5024436;28;20100;-49
2023/09/24 09:15:32;;;;;;;3.20;1.75;;;;;;;16.92;80.44;100178.97;5021847;28;19925;-47
2023/09/24 09:18:00;;;;;;;4.97;1.38;;;;;;;17.02;79.32;100173.50;5020678;28;20076;-51
2023/09/24 09:23:36;;;;;;;5.35;2.15;;;;;;;17.21;79.03;100179.97;5021724;28;20431;-55
2023/09/24 09:26:05;;;;;;;8.18;2.92;;;;;;;17.11;80.10;100181.13;4998842;28;20070;-51
2023/09/24 09:28:34;;;;;;;5.30;2.65;;;;;;;17.09;79.86;100185.53;4999082;28;20050;-48
2023/09/24 09:31:11;;;;;;;6.97;3.67;;;;;;;17.06;80.13;100176.00;4997840;28;20495;-54
2023/09/24 09:33:42;;;;;;;;;;;;;;;17.02;80.56;100183.97;5028298;28;20562;-50
2023/09/24 09:36:27;;;;;;;6.75;3.38;;;;;;;17.10;79.63;100176.78;4999941;28;20379;-52
2023/09/24 09:38:57;;;;;;;4.80;1.35;;;;;;;17.19;79.10;100186.16;4998125;28;20443;-51
2023/09/24 09:41:25;;;;;;;;;;;;;;;17.10;80.02;100182.03;4995381;28;20050;-50
2023/09/24 09:43:53;;;;;;;6.43;3.03;;;;;;;17.21;79.59;100189.56;4999411;28;19949;-53
2023/09/24 09:46:23;;;;;;;3.80;3.22;;;;;;;17.18;79.66;100187.91;4998472;28;20787;-52
2023/09/24 09:49:05;;;;;;;4.68;2.53;;;;;;;17.17;79.81;100183.59;4994960;28;20053;-49
2023/09/24 09:54:15;;;;;;;3.72;1.13;;;;;;;17.25;79.99;100180.72;5000758;28;20409;-53
2023/09/24 09:56:42;;;;;;;4.68;1.10;;;;;;;17.29;79.82;100184.13;5012799;28;20055;-52
2023/09/24 09:59:09;;;;;;;3.53;1.08;;;;;;;17.29;79.69;100178.91;5010047;28;20070;-48
2023/09/24 10:01:36;;;;;;;2.33;0.80;;;;;;;17.30;79.88;100180.59;4975347;28;20134;-54
2023/09/24 10:04:06;;;;;;;2.28;1.08;;;;;;;17.33;79.79;100183.13;4978252;28;20050;-55
2023/09/24 10:06:35;;;;;;;4.28;0.80;;;;;;;17.36;79.20;100182.19;4981697;28;20142;-52
2023/09/24 10:09:21;;;;;;;1.80;1.15;;;;;;;17.37;79.15;100179.53;4979652;28;20039;-47
2023/09/24 10:11:51;;;;;;;3.35;1.13;;;;;;;17.40;78.78;100179.44;4976565;28;20042;-53
2023/09/24 10:14:37;;;;;;;5.57;1.50;;;;;;;17.38;79.15;100181.25;5009460;28;20054;-56
2023/09/24 10:17:23;;;;;;;5.55;2.13;;;;;;;17.40;79.12;100182.06;4977616;28;20050;-56
2023/09/24 10:19:56;;;;;;;8.25;1.25;;;;;;;17.45;79.20;100182.78;4979875;28;20042;-46
2023/09/24 10:22:28;;;;;;;5.78;2.03;;;;;;;17.47;79.29;100180.97;5008196;28;20070;-54
2023/09/24 10:24:55;;;;;;;4.80;2.00;;;;;;;17.46;78.71;100179.25;4979464;28;20047;-46
2023/09/24 10:27:27;;;;;;;7.13;1.48;;;;;;;17.53;79.07;100192.16;5005076;28;20482;-51
2023/09/24 10:32:43;;;;;;;5.20;1.90;;;;;;;17.68;78.88;100178.63;5050144;27;20389;-52
2023/09/24 10:35:11;;;;;;;4.55;1.10;;;;;;;17.77;78.84;100176.63;5019322;28;20066;-46
2023/09/24 10:37:56;;;;;;;4.60;1.33;;;;;;;17.88;78.66;100179.75;5020657;28;20578;-48
2023/09/24 10:40:26;;;;;;;4.88;1.10;;;;;;;17.95;78.32;100170.81;5018401;28;20053;-53
2023/09/24 10:43:13;;;;;;;;;;;;;;;17.87;78.95;100164.97;5021494;28;20054;-53
2023/09/24 10:45:39;;;;;;;5.97;1.58;;;;;;;17.94;79.10;100174.31;5014107;28;19922;-46
2023/09/24 10:48:06;;;;;;;4.40;1.30;;;;;;;18.09;78.07;100172.16;5004121;28;20145;-51
2023/09/24 10:50:38;;;;;;;4.13;0.90;;;;;;;18.14;78.54;100178.13;5004376;28;20038;-50
2023/09/24 10:53:05;;;;;;;5.53;0.98;;;;;;;18.11;78.36;100171.19;5005569;28;20050;-46
2023/09/24 10:55:34;;;;;;;2.35;0.95;;;;;;;18.16;77.84;100176.28;5003483;28;20064;-49
2023/09/24 10:58:03;;;;;;;8.60;0.95;;;;;;;18.17;78.23;100185.03;5001514;28;20050;-48
2023/09/24 11:00:31;;;;;;;3.67;0.88;;;;;;;18.14;78.05;100179.88;5000654;28;20042;-53
2023/09/24 11:03:00;;;;;;;4.35;1.23;;;;;;;18.12;77.79;100177.31;5002983;28;20042;-52
2023/09/24 11:05:28;;;;;;;1.95;0.70;;;;;;;18.12;77.93;100174.69;5002603;28;20084;-44
2023/09/24 11:07:56;;;;;;;3.50;0.65;;;;;;;18.15;77.97;100171.09;5038154;28;20060;-48
2023/09/24 11:10:25;;;;;;;2.45;0.60;;;;;;;18.15;77.86;100173.72;5014123;28;20672;-48
2023/09/24 11:15:31;;;;;;;1.65;1.17;;;;;;;18.14;78.35;100165.03;5025507;28;20425;-51
2023/09/24 11:17:59;;;;;;;2.45;1.02;;;;;;;18.14;78.54;100172.88;5017111;28;20050;-52
2023/09/24 11:20:31;;;;;;;1.00;0.95;;;;;;;18.11;78.22;100176.44;5017599;28;20053;-52
2023/09/24 11:23:01;;;;;;;4.65;1.25;;;;;;;18.13;77.77;100168.53;5014041;28;20510;-49
2023/09/24 11:25:29;;;;;;;2.25;1.42;;;;;;;18.17;78.59;100164.88;5017806;28;20148;-52
2023/09/24 11:27:59;;;;;;;3.38;2.05;;;;;;;18.23;78.09;100174.31;5023036;28;20415;-50
2023/09/24 11:30:53;;;;;;;2.92;1.08;;;;;;;18.24;77.84;100174.28;5015065;28;20676;-48
2023/09/24 11:33:21;;;;;;;3.03;1.45;;;;;;;18.29;77.61;100173.25;5018066;28;20603;-50
2023/09/24 11:35:50;;;;;;;2.47;0.98;;;;;;;18.31;78.04;100172.31;5017075;28;20052;-48
2023/09/24 11:38:35;;;;;;;3.05;1.25;;;;;;;18.29;77.77;100171.50;5020772;28;20065;-47
2023/09/24 11:41:07;;;;;;;4.00;1.17;;;;;;;18.28;78.18;100168.94;5020202;28;20068;-51
2023/09/24 11:43:35;;;;;;;4.45;2.08;;;;;;;18.32;77.99;100162.69;5020972;28;20050;-51
2023/09/24 11:46:13;;;;;;;2.95;1.15;;;;;;;18.37;77.79;100171.25;5020299;28;20064;-52
2023/09/24 11:48:40;;;;;;;6.93;1.88;;;;;;;18.29;77.34;100174.13;5021897;28;20061;-51
2023/09/24 11:51:07;;;;;;;2.03;1.05;;;;;;;18.32;77.29;100167.94;5021631;28;20060;-47
2023/09/24 11:53:33;;;;;;;3.97;1.23;;;;;;;18.34;77.45;100171.38;5015749;28;20054;-51